Time;durP1;ratioP1;P1;durP2;ratioP2;P2;SDS_P1;SDS_P2;PMS_P1;PMS_P2;Temp;Humidity;BMP_temperature;BMP_pressure;BME280_temperature;BME280_humidity;BME280_pressure;Samples;Min_cycle;Max_cycle;Signal;HPM_P1;HPM_P2
2024/01/04 00:00:23;;;;;;;0.20;0.20;;;;;;;10.07;90.95;98052.44;5058515;28;20033;-76
2024/01/04 00:02:49;;;;;;;1.48;0.30;;;;;;;10.05;91.08;98052.09;5034728;28;20694;-77
2024/01/04 00:05:15;;;;;;;0.28;0.28;;;;;;;10.19;89.69;98057.22;5043163;28;20040;-76
2024/01/04 00:07:41;;;;;;;0.20;0.20;;;;;;;10.01;91.04;98057.53;5050330;28;20091;-77
2024/01/04 00:10:07;;;;;;;0.20;0.20;;;;;;;9.99;91.35;98059.88;5059793;28;20461;-77
2024/01/04 00:12:33;;;;;;;0.10;0.10;;;;;;;9.90;92.16;98069.69;5059170;28;20460;-77
2024/01/04 00:14:59;;;;;;;0.10;0.10;;;;;;;10.01;91.67;98068.28;5037436;28;20025;-77
2024/01/04 00:17:25;;;;;;;0.20;0.20;;;;;;;9.93;92.64;98074.22;5038361;28;20497;-77
2024/01/04 00:19:51;;;;;;;0.20;0.20;;;;;;;9.91;93.52;98071.94;5054659;28;20094;-77
2024/01/04 00:22:16;;;;;;;0.35;0.30;;;;;;;9.86;93.54;98074.38;5041198;28;20033;-77
2024/01/04 00:24:43;;;;;;;0.38;0.25;;;;;;;9.76;94.14;98064.56;5057248;28;20094;-76
2024/01/04 00:27:08;;;;;;;1.55;0.40;;;;;;;9.40;96.26;98071.75;5060158;28;20036;-77
2024/01/04 00:29:34;;;;;;;0.38;0.20;;;;;;;9.43;96.64;98076.28;5041278;28;20089;-77
2024/01/04 00:31:59;;;;;;;0.28;0.28;;;;;;;9.38;97.48;98080.22;5042408;28;20123;-77
2024/01/04 00:34:25;;;;;;;0.15;0.15;;;;;;;9.21;98.33;98083.97;5044034;28;21673;-77
2024/01/04 00:36:50;;;;;;;0.85;0.85;;;;;;;9.34;96.70;98090.28;5037534;28;20036;-77
2024/01/04 00:39:15;;;;;;;0.22;0.22;;;;;;;9.42;96.33;98096.28;5024728;28;20048;-77
2024/01/04 00:41:41;;;;;;;0.30;0.30;;;;;;;9.36;96.23;98105.97;5037392;28;20092;-77
2024/01/04 00:44:06;;;;;;;0.30;0.30;;;;;;;9.33;95.53;98107.53;5041014;28;20092;-76
2024/01/04 00:46:32;;;;;;;0.20;0.20;;;;;;;9.34;95.84;98111.00;5038407;28;20032;-78
2024/01/04 00:48:57;;;;;;;0.20;0.20;;;;;;;9.29;94.30;98114.16;5040766;28;20038;-77
2024/01/04 00:51:23;;;;;;;0.22;0.22;;;;;;;9.05;94.70;98105.31;5040996;28;20029;-76
2024/01/04 00:53:48;;;;;;;0.20;0.20;;;;;;;9.06;94.76;98114.88;5041104;28;20501;-77
2024/01/04 00:56:14;;;;;;;0.10;0.10;;;;;;;8.58;96.28;98114.41;5057657;28;20020;-76
2024/01/04 00:58:40;;;;;;;0.25;0.25;;;;;;;8.68;96.34;98121.56;5040354;28;20028;-77
2024/01/04 01:01:05;;;;;;;0.47;0.47;;;;;;;8.67;95.20;98104.72;5057758;28;20427;-76
2024/01/04 01:03:32;;;;;;;0.25;0.25;;;;;;;8.74;95.66;98119.97;5057123;28;20036;-78
2024/01/04 01:05:58;;;;;;;0.30;0.30;;;;;;;8.97;94.58;98125.38;5057536;28;20032;-76
2024/01/04 01:08:25;;;;;;;0.10;0.10;;;;;;;8.72;94.18;98128.41;5055028;28;20051;-76
2024/01/04 01:10:51;;;;;;;0.20;0.20;;;;;;;8.50;94.78;98129.84;5039471;28;20110;-76
2024/01/04 01:13:20;;;;;;;0.65;0.20;;;;;;;8.61;93.94;98125.13;5053220;28;20061;-77
2024/01/04 01:15:48;;;;;;;0.35;0.35;;;;;;;8.53;94.06;98139.03;5053314;28;20071;-77
2024/01/04 01:18:15;;;;;;;0.15;0.13;;;;;;;8.92;92.28;98133.91;5036206;28;20049;-77
2024/01/04 01:20:40;;;;;;;0.43;0.43;;;;;;;8.72;92.52;98143.75;5052812;28;20032;-77
2024/01/04 01:23:06;;;;;;;0.30;0.30;;;;;;;8.82;91.59;98151.66;5039578;28;20033;-76
2024/01/04 01:25:31;;;;;;;1.00;0.50;;;;;;;8.78;90.82;98150.94;5018641;28;20043;-76
2024/01/04 01:27:56;;;;;;;0.20;0.20;;;;;;;8.76;90.74;98153.28;5050758;28;20047;-77
2024/01/04 01:30:22;;;;;;;0.30;0.30;;;;;;;8.88;89.13;98154.66;5019394;28;20397;-77
2024/01/04 01:32:47;;;;;;;0.20;0.20;;;;;;;8.87;88.82;98161.94;5054415;28;20525;-76
2024/01/04 01:35:14;;;;;;;0.13;0.13;;;;;;;8.80;88.50;98159.34;5052458;28;20037;-77
2024/01/04 01:37:40;;;;;;;0.22;0.22;;;;;;;8.89;88.43;98159.59;5053505;28;20043;-77
2024/01/04 01:40:06;;;;;;;0.55;0.55;;;;;;;8.73;88.36;98172.84;5055262;28;20043;-77
2024/01/04 01:42:32;;;;;;;1.98;0.35;;;;;;;8.77;87.51;98178.16;5018455;28;20040;-77
2024/01/04 01:45:00;;;;;;;0.20;0.20;;;;;;;8.49;88.35;98163.22;5052896;28;20132;-77
2024/01/04 01:47:26;;;;;;;0.20;0.20;;;;;;;8.69;87.60;98172.13;5051959;28;20063;-77
2024/01/04 01:49:53;;;;;;;3.72;0.32;;;;;;;8.52;87.69;98175.81;5038356;28;20040;-77
2024/01/04 01:52:19;;;;;;;0.20;0.20;;;;;;;8.92;84.52;98177.56;5054976;28;20028;-76
2024/01/04 01:54:47;;;;;;;0.22;0.22;;;;;;;8.32;87.15;98184.88;5022048;28;20052;-76
2024/01/04 01:57:14;;;;;;;0.30;0.30;;;;;;;7.97;88.55;98184.06;5053520;28;20052;-76
2024/01/04 01:59:40;;;;;;;0.20;0.20;;;;;;;8.40;87.31;98195.09;5054834;28;20043;-76
2024/01/04 02:02:06;;;;;;;0.22;0.22;;;;;;;8.48;85.79;98188.50;5041628;28;20033;-75
2024/01/04 02:04:32;;;;;;;0.73;0.50;;;;;;;8.16;87.24;98204.91;5043942;28;20039;-76
2024/01/04 02:06:57;;;;;;;0.20;0.20;;;;;;;8.56;84.82;98203.34;5037324;28;20025;-76
2024/01/04 02:09:24;;;;;;;0.30;0.30;;;;;;;8.42;85.06;98194.72;5053588;28;20025;-76
2024/01/04 02:11:49;;;;;;;0.52;0.20;;;;;;;8.48;84.55;98206.53;5052502;28;20033;-76
2024/01/04 02:14:14;;;;;;;0.20;0.20;;;;;;;8.77;84.06;98207.69;5025445;28;20116;-77
2024/01/04 02:16:41;;;;;;;0.30;0.30;;;;;;;8.58;84.21;98201.03;5051012;28;20410;-76
2024/01/04 02:19:09;;;;;;;0.65;0.65;;;;;;;8.64;84.47;98215.50;5043678;28;20123;-76
2024/01/04 02:21:37;;;;;;;0.20;0.20;;;;;;;8.73;83.67;98213.09;5035067;28;20049;-76
2024/01/04 02:24:07;;;;;;;0.20;0.20;;;;;;;8.86;83.15;98216.00;5041061;28;20025;-76
2024/01/04 02:26:32;;;;;;;0.30;0.30;;;;;;;8.68;85.10;98221.59;5057327;28;20171;-76
2024/01/04 02:28:58;;;;;;;0.22;0.22;;;;;;;8.39;87.11;98227.69;5045405;28;20028;-76
2024/01/04 02:31:23;;;;;;;0.20;0.20;;;;;;;8.47;87.42;98227.22;5056771;28;20044;-76
2024/01/04 02:33:49;;;;;;;0.35;0.30;;;;;;;8.54;86.45;98237.84;5039649;28;20551;-76
2024/01/04 02:36:14;;;;;;;0.40;0.40;;;;;;;8.33;86.97;98231.94;5041781;28;20417;-77
2024/01/04 02:38:40;;;;;;;0.20;0.20;;;;;;;8.53;85.75;98240.94;5040115;28;20044;-76
2024/01/04 02:41:06;;;;;;;0.60;0.30;;;;;;;7.82;89.50;98244.25;5041148;28;20032;-76
2024/01/04 02:43:31;;;;;;;2.28;0.43;;;;;;;7.86;90.61;98253.03;5062151;28;20024;-76
2024/01/04 02:45:56;;;;;;;0.28;0.20;;;;;;;7.83;90.46;98248.47;5029140;28;20041;-75
2024/01/04 02:48:22;;;;;;;0.60;0.60;;;;;;;7.80;90.84;98251.94;5043210;28;20036;-76
2024/01/04 02:50:47;;;;;;;0.60;0.30;;;;;;;7.98;90.26;98247.19;5042560;28;20024;-76
2024/01/04 02:53:13;;;;;;;0.32;0.30;;;;;;;8.20;90.07;98256.56;5067263;28;20028;-76
2024/01/04 02:55:39;;;;;;;0.30;0.30;;;;;;;8.35;89.24;98257.22;5042539;28;20032;-76
2024/01/04 02:58:04;;;;;;;0.30;0.30;;;;;;;8.24;89.94;98256.53;5063598;28;20020;-76
2024/01/04 03:00:29;;;;;;;0.30;0.30;;;;;;;8.31;89.68;98259.16;5060280;28;20058;-76
2024/01/04 03:02:55;;;;;;;1.00;0.40;;;;;;;7.87;91.59;98262.59;5044393;28;20127;-77
2024/01/04 03:05:20;;;;;;;0.20;0.20;;;;;;;7.64;92.64;98245.56;5032947;28;20028;-76
2024/01/04 03:07:46;;;;;;;0.20;0.20;;;;;;;7.75;90.92;98256.97;5026567;28;20044;-75
2024/01/04 03:10:11;;;;;;;0.20;0.20;;;;;;;7.47;90.37;98268.63;5022440;28;20037;-75
2024/01/04 03:12:38;;;;;;;0.30;0.30;;;;;;;7.71;88.94;98274.97;5062086;28;20032;-76
2024/01/04 03:15:06;;;;;;;0.30;0.30;;;;;;;7.51;90.14;98273.97;5026775;28;20078;-75
2024/01/04 03:17:31;;;;;;;0.55;0.38;;;;;;;7.67;89.67;98284.94;5062486;28;20051;-77
2024/01/04 03:19:57;;;;;;;0.30;0.30;;;;;;;7.85;87.83;98288.25;5043901;28;20036;-76
2024/01/04 03:22:22;;;;;;;0.55;0.38;;;;;;;7.83;88.00;98295.94;5060103;28;20077;-76
2024/01/04 03:24:48;;;;;;;0.30;0.30;;;;;;;8.06;86.66;98296.13;5038842;28;20067;-76
2024/01/04 03:27:13;;;;;;;0.20;0.20;;;;;;;7.80;86.76;98284.06;5036576;28;20155;-75
2024/01/04 03:29:39;;;;;;;0.30;0.30;;;;;;;7.47;88.04;98295.41;5048755;28;20028;-75
2024/01/04 03:32:05;;;;;;;1.27;0.47;;;;;;;7.31;88.05;98289.78;5050089;28;20046;-76
2024/01/04 03:34:31;;;;;;;0.43;0.43;;;;;;;7.28;88.06;98295.88;5030291;28;20040;-76
2024/01/04 03:36:57;;;;;;;0.65;0.57;;;;;;;7.28;87.64;98296.66;5042521;28;20029;-76
2024/01/04 03:39:22;;;;;;;0.40;0.40;;;;;;;7.13;87.76;98291.78;5033093;28;20570;-76
2024/01/04 03:41:49;;;;;;;0.22;0.22;;;;;;;7.17;86.87;98300.53;5035181;28;20036;-75
2024/01/04 03:44:15;;;;;;;0.20;0.20;;;;;;;6.92;86.41;98310.59;5029922;28;20135;-75
2024/01/04 03:46:40;;;;;;;0.30;0.30;;;;;;;6.87;87.71;98314.41;5048084;28;20178;-75
2024/01/04 03:49:05;;;;;;;0.20;0.20;;;;;;;6.99;85.55;98319.34;5059592;28;20406;-76
2024/01/04 03:51:31;;;;;;;0.30;0.30;;;;;;;6.95;85.68;98304.47;5058300;28;20040;-76
2024/01/04 03:53:58;;;;;;;0.32;0.32;;;;;;;7.14;85.71;98325.41;5056872;28;20036;-76
2024/01/04 03:56:24;;;;;;;0.20;0.20;;;;;;;7.14;85.09;98325.41;5058701;28;20040;-76
2024/01/04 03:58:49;;;;;;;0.75;0.65;;;;;;;7.19;84.41;98333.03;5041665;28;20048;-76
2024/01/04 04:01:15;;;;;;;0.38;0.38;;;;;;;7.34;83.82;98329.13;5038639;28;20029;-76
2024/01/04 04:03:40;;;;;;;0.20;0.20;;;;;;;7.13;84.94;98338.03;5041194;28;20033;-76
2024/01/04 04:06:06;;;;;;;0.80;0.40;;;;;;;7.36;83.96;98334.84;5057206;28;20032;-75
2024/01/04 04:08:32;;;;;;;0.40;0.30;;;;;;;7.35;84.38;98337.94;5052579;28;20049;-76
2024/01/04 04:10:57;;;;;;;0.30;0.30;;;;;;;7.09;86.23;98342.63;5045522;28;20078;-76
2024/01/04 04:13:23;;;;;;;3.20;0.80;;;;;;;7.09;86.57;98345.31;5059660;28;20016;-76
2024/01/04 04:15:50;;;;;;;0.40;0.40;;;;;;;7.20;86.85;98343.34;5043850;28;20032;-76
2024/01/04 04:18:15;;;;;;;0.40;0.40;;;;;;;7.07;87.37;98352.97;5044086;28;20400;-76
2024/01/04 04:20:41;;;;;;;0.20;0.20;;;;;;;6.62;88.45;98366.47;5043075;28;20028;-75
2024/01/04 04:23:07;;;;;;;0.20;0.20;;;;;;;6.41;90.38;98369.91;5055420;28;20490;-75
2024/01/04 04:25:36;;;;;;;0.30;0.30;;;;;;;6.53;90.54;98363.41;5058399;28;20033;-75
2024/01/04 04:28:02;;;;;;;0.30;0.30;;;;;;;6.61;89.27;98370.25;5052403;28;20025;-75
2024/01/04 04:30:28;;;;;;;0.32;0.32;;;;;;;6.66;89.34;98369.91;5039490;28;20021;-75
2024/01/04 04:32:54;;;;;;;0.35;0.35;;;;;;;6.48;90.32;98377.94;5044246;28;20036;-75
2024/01/04 04:35:19;;;;;;;0.28;0.28;;;;;;;6.74;89.21;98380.19;5039487;28;20025;-75
2024/01/04 04:37:45;;;;;;;0.40;0.40;;;;;;;6.59;89.73;98386.69;5058860;28;20398;-76
2024/01/04 04:40:11;;;;;;;0.98;0.50;;;;;;;6.76;89.44;98385.91;5041368;28;20035;-76
2024/01/04 04:42:36;;;;;;;0.52;0.30;;;;;;;6.59;90.49;98394.72;5039757;28;20734;-76
2024/01/04 04:45:02;;;;;;;0.32;0.32;;;;;;;6.41;92.51;98401.97;5058701;28;20032;-76
2024/01/04 04:47:28;;;;;;;0.17;0.17;;;;;;;6.52;91.99;98402.75;5059537;28;20571;-76
2024/01/04 04:49:53;;;;;;;0.30;0.30;;;;;;;6.31;92.26;98408.06;5036950;28;20044;-76
2024/01/04 04:52:19;;;;;;;1.70;0.30;;;;;;;6.12;92.86;98417.22;5021138;28;20028;-75
2024/01/04 04:54:44;;;;;;;0.52;0.47;;;;;;;6.47;91.34;98410.38;5055597;28;20029;-75
2024/01/04 04:57:09;;;;;;;0.30;0.30;;;;;;;6.25;92.04;98414.97;5057826;28;20025;-75
2024/01/04 04:59:35;;;;;;;0.30;0.30;;;;;;;6.42;89.99;98413.44;5064401;28;20032;-75
2024/01/04 05:02:00;;;;;;;0.35;0.35;;;;;;;6.26;90.41;98424.50;5017388;28;20071;-75
2024/01/04 05:04:26;;;;;;;0.43;0.43;;;;;;;6.20;91.11;98437.47;5041855;28;20438;-75
2024/01/04 05:06:51;;;;;;;0.30;0.30;;;;;;;5.99;92.70;98436.69;5057631;28;20386;-76
2024/01/04 05:09:17;;;;;;;0.43;0.43;;;;;;;6.13;92.75;98445.50;5042602;28;20508;-76
2024/01/04 05:11:43;;;;;;;0.22;0.22;;;;;;;6.18;92.26;98445.09;5057637;28;20412;-76
2024/01/04 05:14:11;;;;;;;0.43;0.43;;;;;;;6.38;91.71;98453.53;5038934;28;20059;-76
2024/01/04 05:16:36;;;;;;;0.25;0.25;;;;;;;6.29;90.57;98447.81;5035262;28;20034;-75
2024/01/04 05:19:02;;;;;;;0.47;0.47;;;;;;;5.74;92.77;98459.84;5036972;28;20028;-76
2024/01/04 05:21:33;;;;;;;0.50;0.40;;;;;;;5.91;91.60;98473.28;5035513;28;20133;-75
2024/01/04 05:23:59;;;;;;;0.77;0.60;;;;;;;5.66;91.31;98479.66;5056354;28;20037;-76
2024/01/04 05:26:24;;;;;;;0.20;0.20;;;;;;;5.45;92.50;98483.75;5057247;28;20048;-75
2024/01/04 05:28:50;;;;;;;0.35;0.35;;;;;;;5.33;92.18;98494.75;5041656;28;20560;-75
2024/01/04 05:31:18;;;;;;;0.40;0.40;;;;;;;5.45;91.70;98496.34;5041497;28;20115;-75
2024/01/04 05:33:44;;;;;;;0.30;0.30;;;;;;;5.50;91.85;98504.75;5053056;28;20039;-76
2024/01/04 05:36:10;;;;;;;0.40;0.40;;;;;;;5.45;91.82;98510.44;5056687;28;20024;-75
2024/01/04 05:38:35;;;;;;;0.63;0.40;;;;;;;5.59;92.16;98517.00;5039327;28;20048;-76
2024/01/04 05:41:00;;;;;;;0.47;0.47;;;;;;;5.50;92.71;98520.75;5055971;28;20044;-76
2024/01/04 05:43:28;;;;;;;0.40;0.40;;;;;;;5.67;93.04;98529.25;5056676;28;20482;-76
2024/01/04 05:45:54;;;;;;;0.55;0.52;;;;;;;6.06;90.77;98533.63;5040688;28;20032;-76
2024/01/04 05:48:19;;;;;;;0.40;0.40;;;;;;;6.20;90.17;98546.25;5041799;28;20036;-76
2024/01/04 05:50:45;;;;;;;0.55;0.55;;;;;;;6.08;89.31;98557.28;5025977;28;20494;-76
2024/01/04 05:53:10;;;;;;;0.45;0.43;;;;;;;5.73;89.55;98551.78;5061049;28;20039;-76
2024/01/04 05:55:36;;;;;;;0.70;0.70;;;;;;;5.48;90.42;98568.41;5042728;28;20058;-76
2024/01/04 05:58:01;;;;;;;0.95;0.95;;;;;;;5.40;91.08;98576.75;5028235;28;20020;-76
2024/01/04 06:00:27;;;;;;;1.25;0.90;;;;;;;5.35;90.63;98579.75;5041560;28;20534;-75
2024/01/04 06:02:52;;;;;;;1.08;0.90;;;;;;;5.60;90.21;98585.25;5039056;28;20040;-76
2024/01/04 06:05:17;;;;;;;1.52;0.80;;;;;;;5.63;91.04;98592.53;5062386;28;20131;-75
2024/01/04 06:07:43;;;;;;;0.50;0.50;;;;;;;5.50;90.98;98600.06;5059260;28;20033;-76
2024/01/04 06:10:08;;;;;;;0.50;0.50;;;;;;;5.49;92.17;98603.88;5064043;28;20087;-76
2024/01/04 06:12:34;;;;;;;0.38;0.38;;;;;;;5.45;91.58;98621.75;5062343;28;20028;-75
2024/01/04 06:14:59;;;;;;;0.95;0.70;;;;;;;5.29;92.89;98624.69;5038352;28;20028;-76
2024/01/04 06:17:25;;;;;;;0.57;0.57;;;;;;;5.20;92.30;98636.81;5044150;28;20120;-77
2024/01/04 06:19:50;;;;;;;0.60;0.60;;;;;;;5.20;93.73;98650.94;5043666;28;20037;-77
2024/01/04 06:22:16;;;;;;;1.70;0.63;;;;;;;5.16;92.81;98652.03;5041100;28;20409;-75
2024/01/04 06:24:46;;;;;;;2.28;0.93;;;;;;;5.37;92.58;98666.31;5036930;28;20041;-76
2024/01/04 06:27:11;;;;;;;1.58;0.75;;;;;;;5.20;92.35;98669.59;5045990;28;20107;-76
2024/01/04 06:29:37;;;;;;;2.40;0.80;;;;;;;5.31;92.55;98673.13;5061407;28;20124;-76
2024/01/04 06:32:03;;;;;;;0.43;0.43;;;;;;;5.55;91.14;98679.81;5060869;28;20021;-76
2024/01/04 06:34:28;;;;;;;0.73;0.73;;;;;;;5.31;91.59;98694.47;5040463;28;20531;-76
2024/01/04 06:36:54;;;;;;;0.63;0.63;;;;;;;5.43;92.04;98688.84;5061268;28;20054;-77
2024/01/04 06:39:19;;;;;;;0.47;0.47;;;;;;;5.59;91.00;98701.94;5062579;28;20039;-75
2024/01/04 06:41:45;;;;;;;0.50;0.50;;;;;;;5.45;91.83;98710.59;5058875;28;20053;-77
2024/01/04 06:44:10;;;;;;;0.60;0.60;;;;;;;5.42;91.85;98711.31;5040213;28;20028;-75
2024/01/04 06:46:36;;;;;;;0.50;0.50;;;;;;;5.41;91.68;98717.03;5059421;28;20485;-76
2024/01/04 06:49:02;;;;;;;0.60;0.60;;;;;;;5.30;92.12;98724.94;5036695;28;20037;-77
2024/01/04 06:51:27;;;;;;;0.50;0.50;;;;;;;5.22;92.97;98718.03;5040174;28;20047;-76
2024/01/04 06:53:53;;;;;;;0.30;0.30;;;;;;;5.12;93.04;98729.34;5058303;28;20029;-76
2024/01/04 06:56:19;;;;;;;0.80;0.80;;;;;;;5.14;93.65;98742.31;5060898;28;20032;-76
2024/01/04 06:58:45;;;;;;;0.38;0.38;;;;;;;5.08;93.70;98744.53;5040117;28;20533;-75
2024/01/04 07:01:11;;;;;;;3.40;0.82;;;;;;;4.90;93.78;98751.56;5044835;28;20102;-75
2024/01/04 07:03:36;;;;;;;0.30;0.30;;;;;;;4.87;93.26;98746.97;5043120;28;20574;-75
2024/01/04 07:06:02;;;;;;;0.45;0.45;;;;;;;4.73;94.51;98752.13;5039270;28;20033;-76
2024/01/04 07:08:28;;;;;;;0.40;0.40;;;;;;;4.84;94.20;98768.28;5059776;28;20029;-75
2024/01/04 07:10:53;;;;;;;0.40;0.40;;;;;;;5.06;93.49;98770.81;5041340;28;20051;-75
2024/01/04 07:13:19;;;;;;;1.75;0.63;;;;;;;4.79;93.80;98765.91;5064297;28;20028;-75
2024/01/04 07:15:45;;;;;;;0.82;0.50;;;;;;;5.09;93.15;98786.06;5050283;28;20025;-76
2024/01/04 07:18:10;;;;;;;0.50;0.50;;;;;;;5.18;92.28;98781.25;5051408;28;20032;-76
2024/01/04 07:20:37;;;;;;;0.57;0.50;;;;;;;4.88;93.24;98793.06;5038358;28;20032;-75
2024/01/04 07:23:03;;;;;;;0.30;0.30;;;;;;;4.88;93.44;98809.81;5060278;28;20448;-75
2024/01/04 07:25:30;;;;;;;0.38;0.38;;;;;;;5.08;92.15;98800.56;5059638;28;20040;-76
2024/01/04 07:27:56;;;;;;;0.55;0.40;;;;;;;5.16;92.79;98812.84;5055758;28;20619;-76
2024/01/04 07:30:22;;;;;;;0.47;0.47;;;;;;;4.93;93.14;98825.53;5053558;28;20516;-76
2024/01/04 07:32:47;;;;;;;0.52;0.52;;;;;;;4.85;92.86;98820.44;5055751;28;20040;-76
2024/01/04 07:35:14;;;;;;;0.40;0.40;;;;;;;4.52;94.48;98837.13;5036160;28;20029;-76
2024/01/04 07:37:39;;;;;;;0.40;0.40;;;;;;;4.96;93.71;98840.78;5037934;28;20039;-77
2024/01/04 07:40:05;;;;;;;0.30;0.30;;;;;;;5.04;93.45;98854.97;5040500;28;20124;-76
2024/01/04 07:42:30;;;;;;;0.43;0.43;;;;;;;5.06;92.46;98863.38;5057171;28;20052;-76
2024/01/04 07:44:56;;;;;;;0.52;0.52;;;;;;;4.97;92.24;98873.56;5042063;28;20032;-75
2024/01/04 07:47:21;;;;;;;0.40;0.40;;;;;;;4.99;93.29;98885.41;5047119;28;20048;-76
2024/01/04 07:49:47;;;;;;;0.63;0.55;;;;;;;5.15;92.11;98883.31;5061117;28;20028;-76
2024/01/04 07:52:12;;;;;;;0.20;0.20;;;;;;;4.83;92.97;98892.81;5053400;28;20029;-75
2024/01/04 07:54:38;;;;;;;0.30;0.30;;;;;;;4.96;92.76;98899.44;5051202;28;20043;-76
2024/01/04 07:57:03;;;;;;;0.60;0.60;;;;;;;4.93;92.86;98913.53;5045331;28;20021;-75
2024/01/04 07:59:29;;;;;;;0.28;0.28;;;;;;;5.09;91.97;98916.78;5061597;28;20078;-76
2024/01/04 08:01:55;;;;;;;4.03;0.80;;;;;;;5.18;91.97;98924.53;5026303;28;20516;-75
2024/01/04 08:04:21;;;;;;;0.35;0.35;;;;;;;5.10;91.71;98931.66;5059607;28;20028;-75
2024/01/04 08:06:50;;;;;;;0.30;0.30;;;;;;;5.09;92.21;98940.03;5040025;28;20036;-76
2024/01/04 08:09:16;;;;;;;0.65;0.65;;;;;;;5.07;92.03;98956.38;5059231;28;20031;-75
2024/01/04 08:11:42;;;;;;;0.32;0.22;;;;;;;5.19;92.99;98958.84;5021643;28;20029;-76
2024/01/04 08:14:07;;;;;;;0.32;0.32;;;;;;;5.30;92.83;98965.06;5056207;28;20035;-75
2024/01/04 08:16:33;;;;;;;0.35;0.32;;;;;;;5.21;93.07;98971.81;5041847;28;20429;-76
2024/01/04 08:18:58;;;;;;;0.32;0.22;;;;;;;5.25;91.75;98981.41;5038761;28;20037;-76
2024/01/04 08:21:24;;;;;;;0.82;0.68;;;;;;;5.40;91.29;98990.41;5064256;28;20126;-76
2024/01/04 08:23:53;;;;;;;0.63;0.45;;;;;;;5.41;90.19;99000.69;5040604;28;20036;-77
2024/01/04 08:26:18;;;;;;;0.40;0.40;;;;;;;5.35;89.86;99006.69;5041819;28;20036;-76
2024/01/04 08:28:43;;;;;;;0.40;0.40;;;;;;;5.42;90.04;99017.47;5058219;28;20033;-77
2024/01/04 08:31:10;;;;;;;0.40;0.30;;;;;;;5.20;89.92;99019.09;5057267;28;20481;-77
2024/01/04 08:33:36;;;;;;;0.32;0.32;;;;;;;5.34;89.53;99021.19;5036829;28;20036;-76
2024/01/04 08:36:02;;;;;;;0.47;0.40;;;;;;;5.40;89.52;99028.50;5055260;28;20498;-76
2024/01/04 08:38:29;;;;;;;0.20;0.20;;;;;;;5.47;89.73;99033.97;5050110;28;20037;-76
2024/01/04 08:40:54;;;;;;;0.40;0.40;;;;;;;5.45;89.07;99041.56;5035993;28;20398;-76
2024/01/04 08:43:21;;;;;;;0.43;0.43;;;;;;;5.44;89.45;99061.34;5058488;28;20057;-76
2024/01/04 08:45:47;;;;;;;0.40;0.40;;;;;;;5.26;89.90;99057.66;5061041;28;20043;-77
2024/01/04 08:48:13;;;;;;;0.60;0.60;;;;;;;5.53;89.38;99067.19;5040069;28;20029;-76
2024/01/04 08:50:39;;;;;;;0.63;0.40;;;;;;;5.49;88.70;99070.97;5061398;28;20549;-76
2024/01/04 08:53:04;;;;;;;0.30;0.30;;;;;;;5.39;89.15;99069.69;5054287;28;20124;-77
2024/01/04 08:55:30;;;;;;;0.40;0.40;;;;;;;5.37;89.89;99085.28;5038791;28;20036;-76
2024/01/04 08:57:59;;;;;;;0.20;0.20;;;;;;;5.45;90.00;99088.81;5049026;28;20043;-76
2024/01/04 09:00:24;;;;;;;0.90;0.50;;;;;;;5.65;89.28;99084.16;5050192;28;20024;-77
2024/01/04 09:02:50;;;;;;;0.25;0.25;;;;;;;5.61;89.74;99083.31;5045945;28;20053;-76
2024/01/04 09:05:15;;;;;;;0.30;0.30;;;;;;;5.63;89.00;99094.41;5037242;28;20033;-77
2024/01/04 09:07:41;;;;;;;0.40;0.40;;;;;;;5.58;88.20;99100.06;5054348;28;20486;-76
2024/01/04 09:10:08;;;;;;;0.40;0.40;;;;;;;5.63;88.59;99115.78;5040689;28;20029;-76
2024/01/04 09:12:33;;;;;;;0.20;0.20;;;;;;;5.36;89.07;99121.09;5039988;28;20639;-76
2024/01/04 09:14:59;;;;;;;0.70;0.40;;;;;;;5.49;88.66;99133.13;5052467;28;20029;-77
2024/01/04 09:17:25;;;;;;;0.30;0.30;;;;;;;5.45;89.06;99131.53;5035902;28;20060;-76
2024/01/04 09:19:51;;;;;;;0.25;0.25;;;;;;;5.53;89.23;99143.06;5035910;28;20036;-76
2024/01/04 09:22:17;;;;;;;0.38;0.38;;;;;;;5.53;89.63;99149.94;5036166;28;20062;-76
2024/01/04 09:24:42;;;;;;;0.50;0.50;;;;;;;5.42;89.47;99153.56;5039226;28;20105;-76
2024/01/04 09:27:08;;;;;;;0.30;0.30;;;;;;;5.41;90.07;99160.84;5042152;28;20036;-77
2024/01/04 09:29:34;;;;;;;0.28;0.28;;;;;;;5.58;89.66;99172.13;5062595;28;20124;-77
2024/01/04 09:32:01;;;;;;;0.40;0.40;;;;;;;5.48;89.56;99176.94;5044237;28;20035;-76
2024/01/04 09:34:27;;;;;;;0.32;0.32;;;;;;;5.65;89.43;99186.38;5044048;28;20516;-76
2024/01/04 09:36:54;;;;;;;0.47;0.47;;;;;;;5.67;88.99;99191.38;5060140;28;20037;-76
2024/01/04 09:39:20;;;;;;;0.40;0.40;;;;;;;5.69;88.59;99202.47;5055894;28;20029;-76
2024/01/04 09:41:47;;;;;;;0.25;0.25;;;;;;;5.59;88.61;99205.72;5035749;28;20063;-76
2024/01/04 09:44:13;;;;;;;0.22;0.22;;;;;;;5.79;87.64;99215.22;5020620;28;20056;-76
2024/01/04 09:46:40;;;;;;;0.45;0.30;;;;;;;5.64;88.31;99224.88;5058078;28;20033;-77
2024/01/04 09:49:07;;;;;;;0.25;0.25;;;;;;;5.61;88.62;99238.19;5057884;28;20035;-76
2024/01/04 09:51:34;;;;;;;0.30;0.30;;;;;;;5.55;88.63;99234.25;5055691;28;20081;-77
2024/01/04 09:54:01;;;;;;;0.32;0.32;;;;;;;5.50;88.58;99240.66;5031628;28;20041;-76
2024/01/04 09:56:28;;;;;;;0.52;0.38;;;;;;;5.58;89.23;99244.22;5059365;28;20045;-77
2024/01/04 09:58:54;;;;;;;0.30;0.30;;;;;;;5.63;88.16;99260.72;5059620;28;20051;-76
2024/01/04 10:01:23;;;;;;;0.68;0.45;;;;;;;5.69;88.44;99266.53;5060186;28;20041;-76
2024/01/04 10:03:49;;;;;;;0.30;0.30;;;;;;;5.54;88.60;99270.84;5042368;28;20041;-76
2024/01/04 10:06:35;;;;;;;3.75;0.60;;;;;;;5.60;87.54;99274.00;5059847;28;20175;-76
2024/01/04 10:09:15;;;;;;;1.15;0.60;;;;;;;5.55;88.03;99284.97;5052686;28;20040;-77
2024/01/04 10:12:11;;;;;;;0.20;0.20;;;;;;;5.61;87.08;99288.91;5061661;28;20024;-77
2024/01/04 10:14:37;;;;;;;0.40;0.40;;;;;;;5.47;87.86;99303.56;5053763;28;20048;-77
2024/01/04 10:17:04;;;;;;;0.63;0.57;;;;;;;5.39;87.73;99304.53;5059665;28;20275;-76
2024/01/04 10:19:31;;;;;;;0.30;0.30;;;;;;;5.22;88.35;99299.66;5060017;28;20166;-76
2024/01/04 10:22:04;;;;;;;1.30;0.85;;;;;;;5.33;88.83;99311.28;5043027;28;20056;-77
2024/01/04 10:24:38;;;;;;;0.30;0.30;;;;;;;5.48;88.81;99323.75;5044743;28;20041;-76
2024/01/04 10:27:05;;;;;;;0.63;0.50;;;;;;;5.60;88.30;99332.72;5059925;28;20040;-76
2024/01/04 10:29:35;;;;;;;0.40;0.40;;;;;;;5.64;88.48;99322.88;5038114;28;20025;-77
2024/01/04 10:32:20;;;;;;;0.30;0.30;;;;;;;5.70;88.77;99338.28;5059251;28;20036;-76
2024/01/04 10:34:46;;;;;;;0.40;0.40;;;;;;;5.70;88.30;99346.28;5040601;28;20040;-77
2024/01/04 10:37:13;;;;;;;0.40;0.40;;;;;;;5.66;88.22;99342.00;5042946;28;20109;-76
2024/01/04 10:39:45;;;;;;;0.30;0.30;;;;;;;5.69;88.01;99352.00;5042661;28;20032;-76
2024/01/04 10:42:12;;;;;;;1.63;0.60;;;;;;;5.79;88.03;99364.78;5054146;28;20043;-77
2024/01/04 10:44:39;;;;;;;0.32;0.32;;;;;;;5.84;87.37;99369.84;5040285;28;20047;-77
2024/01/04 10:47:08;;;;;;;0.20;0.20;;;;;;;5.89;86.89;99369.53;5058128;28;20071;-77
2024/01/04 10:49:41;;;;;;;0.57;0.57;;;;;;;5.83;86.92;99370.91;5058234;28;20489;-76
2024/01/04 10:52:14;;;;;;;0.70;0.70;;;;;;;5.75;87.09;99369.28;5036176;28;20119;-76
2024/01/04 10:54:41;;;;;;;0.20;0.20;;;;;;;5.75;86.37;99379.94;5040081;28;20494;-76
2024/01/04 10:57:09;;;;;;;0.20;0.20;;;;;;;5.66;86.45;99379.38;5055312;28;20517;-76
2024/01/04 10:59:35;;;;;;;0.50;0.45;;;;;;;5.59;87.05;99387.28;5042043;28;20443;-76
2024/01/04 11:02:02;;;;;;;0.50;0.50;;;;;;;5.61;86.68;99390.34;5054051;28;20413;-77
2024/01/04 11:04:29;;;;;;;0.73;0.73;;;;;;;5.30;86.91;99388.59;5037821;28;20474;-76
2024/01/04 11:06:55;;;;;;;0.20;0.20;;;;;;;5.52;86.62;99397.81;5040256;28;20033;-77
2024/01/04 11:09:22;;;;;;;0.22;0.22;;;;;;;5.61;85.70;99406.38;5040162;28;20036;-77
2024/01/04 11:11:52;;;;;;;0.50;0.50;;;;;;;5.44;85.93;99407.56;5058617;28;20029;-77
2024/01/04 11:14:27;;;;;;;0.57;0.55;;;;;;;5.41;86.50;99405.59;5038222;28;21901;-77
2024/01/04 11:17:08;;;;;;;0.32;0.32;;;;;;;5.44;87.33;99413.69;5039013;28;20095;-76
2024/01/04 11:19:45;;;;;;;0.20;0.20;;;;;;;5.58;87.32;99413.19;5060956;28;20024;-76
2024/01/04 11:22:39;;;;;;;0.30;0.30;;;;;;;5.47;87.29;99417.56;5058805;28;20524;-76
2024/01/04 11:25:32;;;;;;;4.93;0.80;;;;;;;5.59;86.95;99432.66;5056371;28;20409;-76
2024/01/04 11:27:58;;;;;;;0.95;0.55;;;;;;;5.56;86.32;99430.66;5054954;28;20071;-78
2024/01/04 11:30:24;;;;;;;0.50;0.50;;;;;;;5.57;85.72;99435.69;5061399;28;20032;-76
2024/01/04 11:32:50;;;;;;;0.30;0.30;;;;;;;5.58;85.42;99444.44;5044823;28;20086;-76
2024/01/04 11:35:16;;;;;;;0.30;0.30;;;;;;;5.64;85.58;99443.03;5038361;28;20040;-76
2024/01/04 11:37:50;;;;;;;0.60;0.60;;;;;;;5.69;85.35;99450.78;5060450;28;20033;-76